Terminal Aerodrome Forecast
Issued by NWS Portland, ME

Home | Current Version | Previous Version | Text Only | Print | Product List | Glossary On
Versions: 1 2 3 4 5 6 7 8 9 10 11 12 13 14 15 16
000
FTUS41 KGYX 180520
TAFCON
TAF
KCON 180520Z 1806/1906 00000KT P6SM VCSH BKN090
     FM181400 00000KT P6SM OVC015
      TEMPO 1814/1815 2SM -SHRA OVC007
     FM181500 00000KT 2SM -SHRA OVC008
     FM190000 14005KT 1SM -SHRA BR OVC008=

USA.gov is the U.S. government's official web portal to all federal, state and local government web resources and services.